Text Box: All records at near 07:00 local time
Kleivo 1 weather for Mar 2010
Month no. 40
Obs.
Da.
Temp. Dew Point Precip. Wind
Speed
Wind gusts Cloud cover Press. Humidity Wind dir. Sunny OPT
01.03.2010 -4,9 -10,1 0,0 0,0 6,4 10 992,1 67,0 202,5 1 75,0 %
02.03.2010 -5,9 -7,0 0,5 0,0 3,2 10 1008,4 92,0 337,5 1 75,0 %
03.03.2010 -0,8 -4,0 0,0 4,8 14,5 10 1014,8 79,0 0,0 1 75,0 %
04.03.2010 -6,9 -8,1 0,0 0,0 0,0 0 1021,2 92,0 90,0   50,0 %
05.03.2010 -1,7 -2,6 5,2 1,6 24,1 0 1012,8 93,0 202,5   50,0 %
06.03.2010 -2,0 -10,8 1,0 3,2 20,9 0 1024,6 51,0 157,5   52,5 %
07.03.2010 -0,4 -1,2 1,5 4,8 8,0 0 1027,7 95,0 22,5   50,0 %
08.03.2010 0,8 0,4 1,5 0,0 0,0 0 1027,3 97,0 45,0   55,0 %
09.03.2010 0,1 -0,3 0,0 0,0 0,0 0 1027,0 97,0 247,5   55,0 %
10.03.2010 2,3 1,6 0,5 0,0 0,0 0 1027,0 95,0 45,0 1 55,0 %
11.03.2010 3,0 2,4 0,0 0,0 0,0 0 1017,2 96,0 0,0   57,5 %
12.03.2010 2,6 2,1 0,5 1,6 1,6 0 1010,7 97,0 180,0 1 57,5 %
13.03.2010 3,1 1,9 0,0 6,4 6,4 1 1010,7 92,0 292,5 1 57,5 %
14.03.2010 -0,2 -1,4 1,0 3,2 3,2 5 1009,0 92,0 225,0 1 65,0 %
15.03.2010 -0,9 -2,1 3,1 0,0 0,0 0 1012,1 92,0 337,5   50,0 %
16.03.2010 -0,9 -1,7 0,5 0,0 0,0 0 1016,1 94,0 22,5   52,5 %
17.03.2010 3,2 2,6 0,5 0,0 0,0 0 1011,1 96,0 180,0   57,5 %
18.03.2010 5,7 4,8 0,0 4,8 6,4 0 1006,0 94,0 225,0   57,5 %
19.03.2010 6,2 5,3 0,0 3,2 6,4 0 994,1 94,0 202,5 1 60,0 %
20.03.2010 5,7 4,9 0,5 12,9 14,5 0 994,8 95,0 202,5 1 52,5 %
21.03.2010 4,3 3,6 0,0 0,0 0,0 0 996,8 95,0 180,0   57,5 %
22.03.2010 4,3 1,2 0,0 1,6 3,2 0 1011,7 80,0 202,5   57,5 %
23.03.2010 5,2 4,3 0,0 12,9 17,7 0 1002,3 94,0 180,0   52,5 %
24.03.2010 3,7 2,1 0,0 0,0 0,0 0 1010,4 89,0 22,5   57,5 %
25.03.2010 7,4 5,6 3,1 1,6 1,6 0 1006,0 88,0 22,5   57,5 %
26.03.2010 7,5 5,2 0,0 3,2 3,2 0 996,8 85,0 22,5   62,5 %
27.03.2010 4,3 0,0 0,0 0,0 0,0 4 994,1 89,0 22,5   67,5 %
28.03.2010 4,4 0,0 0,0 0,0 0,0 1 992,4 95,0 22,5   60,0 %
29.03.2010 3,6 2,9 0,0 0,0 0,0 0 990,7 95,0 90,0   57,5 %
30.03.2010 -0,1 -1,2 0,5 1,6 1,6 0 1000,6 92,0 0,0   52,5 %
31.03.2010 4,3 3,4 0,0 4,8 11,3 0 988,4 94,0 22,5   55,0 %
Avrg/Sum 1,8 0,1 19,9 2,3 5,0 1,3 1008,2 90,2 129,2 9 58,0 %